sensor_id;sensor_type;location;lat;lon;timestamp;pressure;altitude;pressure_sealevel;temperature;humidity
9235;BME280;4652;42.716;23.218;2023-02-10T00:00:40;96610.22;;;-7.68;100.00
9235;BME280;4652;42.716;23.218;2023-02-10T00:07:22;96614.56;;;-7.88;100.00
9235;BME280;4652;42.716;23.218;2023-02-10T00:14:04;96611.72;;;-8.06;100.00
9235;BME280;4652;42.716;23.218;2023-02-10T00:20:47;96604.63;;;-7.94;100.00
9235;BME280;4652;42.716;23.218;2023-02-10T00:27:29;96593.66;;;-7.79;100.00
9235;BME280;4652;42.716;23.218;2023-02-10T00:34:12;96591.00;;;-7.98;100.00
9235;BME280;4652;42.716;23.218;2023-02-10T00:41:01;96593.25;;;-8.14;100.00
9235;BME280;4652;42.716;23.218;2023-02-10T00:47:43;96584.88;;;-8.17;100.00
9235;BME280;4652;42.716;23.218;2023-02-10T00:54:27;96573.34;;;-8.15;100.00
9235;BME280;4652;42.716;23.218;2023-02-10T01:01:10;96571.38;;;-8.22;100.00
9235;BME280;4652;42.716;23.218;2023-02-10T01:07:52;96572.31;;;-8.33;100.00
9235;BME280;4652;42.716;23.218;2023-02-10T01:14:34;96578.66;;;-8.26;100.00
9235;BME280;4652;42.716;23.218;2023-02-10T01:21:19;96568.53;;;-8.50;100.00
9235;BME280;4652;42.716;23.218;2023-02-10T01:28:02;96547.03;;;-8.63;100.00
9235;BME280;4652;42.716;23.218;2023-02-10T01:34:44;96558.91;;;-8.49;100.00
9235;BME280;4652;42.716;23.218;2023-02-10T01:41:27;96557.78;;;-8.56;100.00
9235;BME280;4652;42.716;23.218;2023-02-10T01:48:10;96555.53;;;-8.61;100.00
9235;BME280;4652;42.716;23.218;2023-02-10T01:54:56;96509.63;;;-8.73;100.00
9235;BME280;4652;42.716;23.218;2023-02-10T14:32:04;96281.53;;;3.76;48.07
9235;BME280;4652;42.716;23.218;2023-02-10T14:38:50;96294.78;;;3.96;48.31
9235;BME280;4652;42.716;23.218;2023-02-10T14:45:32;96280.44;;;3.90;48.94
9235;BME280;4652;42.716;23.218;2023-02-10T14:52:23;96282.75;;;3.80;48.45
9235;BME280;4652;42.716;23.218;2023-02-10T14:59:18;96279.34;;;3.60;48.96
9235;BME280;4652;42.716;23.218;2023-02-10T15:06:01;96288.34;;;3.59;49.69
9235;BME280;4652;42.716;23.218;2023-02-10T15:12:45;96285.06;;;3.57;49.57
9235;BME280;4652;42.716;23.218;2023-02-10T15:19:27;96295.34;;;3.40;49.24
9235;BME280;4652;42.716;23.218;2023-02-10T15:26:17;96288.03;;;3.10;49.68
9235;BME280;4652;42.716;23.218;2023-02-10T15:33:02;96301.97;;;2.92;51.41
9235;BME280;4652;42.716;23.218;2023-02-10T15:39:54;96310.34;;;2.56;52.09
9235;BME280;4652;42.716;23.218;2023-02-10T15:46:36;96310.97;;;1.91;53.46
9235;BME280;4652;42.716;23.218;2023-02-10T15:53:20;96278.06;;;1.04;56.74
9235;BME280;4652;42.716;23.218;2023-02-10T16:00:05;96320.09;;;0.79;59.95
9235;BME280;4652;42.716;23.218;2023-02-10T16:06:47;96335.03;;;0.38;62.30
9235;BME280;4652;42.716;23.218;2023-02-10T16:13:31;96322.78;;;-0.35;72.94
9235;BME280;4652;42.716;23.218;2023-02-10T16:20:19;96353.63;;;-0.71;82.46
9235;BME280;4652;42.716;23.218;2023-02-10T16:27:02;96374.16;;;-1.10;90.57
9235;BME280;4652;42.716;23.218;2023-02-10T16:33:46;96344.59;;;-1.51;93.74
9235;BME280;4652;42.716;23.218;2023-02-10T16:40:31;96376.25;;;-1.43;96.17
9235;BME280;4652;42.716;23.218;2023-02-10T16:47:16;96369.63;;;-1.62;96.29
9235;BME280;4652;42.716;23.218;2023-02-10T16:54:00;96381.00;;;-1.61;94.89
9235;BME280;4652;42.716;23.218;2023-02-10T17:00:48;96385.22;;;-1.75;94.94
9235;BME280;4652;42.716;23.218;2023-02-10T17:07:30;96388.50;;;-1.73;96.25
9235;BME280;4652;42.716;23.218;2023-02-10T17:14:14;96391.28;;;-1.66;95.19
9235;BME280;4652;42.716;23.218;2023-02-10T17:20:56;96405.88;;;-1.79;96.44
9235;BME280;4652;42.716;23.218;2023-02-10T17:27:38;96404.63;;;-1.99;97.83
9235;BME280;4652;42.716;23.218;2023-02-10T17:34:21;96357.66;;;-2.34;94.02
9235;BME280;4652;42.716;23.218;2023-02-10T17:41:05;96374.75;;;-2.22;92.71
9235;BME280;4652;42.716;23.218;2023-02-10T17:47:48;96419.00;;;-2.01;91.80
9235;BME280;4652;42.716;23.218;2023-02-10T17:54:31;96419.78;;;-1.93;89.56
9235;BME280;4652;42.716;23.218;2023-02-10T18:01:19;96424.00;;;-1.75;88.85
9235;BME280;4652;42.716;23.218;2023-02-10T18:08:02;96431.81;;;-1.59;84.89
9235;BME280;4652;42.716;23.218;2023-02-10T18:14:45;96427.75;;;-1.39;79.50
9235;BME280;4652;42.716;23.218;2023-02-10T18:21:29;96431.63;;;-1.27;78.10
9235;BME280;4652;42.716;23.218;2023-02-10T18:28:11;96431.03;;;-1.14;79.60
9235;BME280;4652;42.716;23.218;2023-02-10T18:34:55;96444.78;;;-1.19;78.34
9235;BME280;4652;42.716;23.218;2023-02-10T18:41:37;96448.16;;;-1.10;78.59
9235;BME280;4652;42.716;23.218;2023-02-10T18:48:19;96462.19;;;-1.10;77.05
9235;BME280;4652;42.716;23.218;2023-02-10T18:55:03;96433.53;;;-1.21;75.09
9235;BME280;4652;42.716;23.218;2023-02-10T19:01:45;96452.94;;;-1.06;72.83
9235;BME280;4652;42.716;23.218;2023-02-10T19:08:27;96443.75;;;-1.18;71.57
9235;BME280;4652;42.716;23.218;2023-02-10T19:15:11;96455.09;;;-1.09;70.58
9235;BME280;4652;42.716;23.218;2023-02-10T19:21:53;96464.00;;;-1.10;71.15
9235;BME280;4652;42.716;23.218;2023-02-10T19:28:35;96476.09;;;-1.08;70.65
9235;BME280;4652;42.716;23.218;2023-02-10T19:35:19;96478.00;;;-1.25;71.28
9235;BME280;4652;42.716;23.218;2023-02-10T19:42:02;96476.84;;;-1.22;72.18
9235;BME280;4652;42.716;23.218;2023-02-10T19:48:45;96469.97;;;-1.31;72.09
9235;BME280;4652;42.716;23.218;2023-02-10T19:55:29;96495.88;;;-1.35;73.27
9235;BME280;4652;42.716;23.218;2023-02-10T22:04:47;96461.16;;;-2.16;94.50
9235;BME280;4652;42.716;23.218;2023-02-10T22:11:29;96492.13;;;-2.18;94.69
9235;BME280;4652;42.716;23.218;2023-02-10T22:18:12;96486.50;;;-2.15;94.71
9235;BME280;4652;42.716;23.218;2023-02-10T22:24:55;96485.41;;;-2.37;95.76
9235;BME280;4652;42.716;23.218;2023-02-10T22:31:38;96490.53;;;-2.27;96.13
9235;BME280;4652;42.716;23.218;2023-02-10T22:38:20;96502.38;;;-2.23;95.28
9235;BME280;4652;42.716;23.218;2023-02-10T22:45:04;96501.41;;;-2.30;95.12
9235;BME280;4652;42.716;23.218;2023-02-10T22:51:46;96497.63;;;-2.35;95.46
9235;BME280;4652;42.716;23.218;2023-02-10T22:58:28;96473.81;;;-2.90;96.82
9235;BME280;4652;42.716;23.218;2023-02-10T23:05:11;96491.44;;;-3.07;98.70
9235;BME280;4652;42.716;23.218;2023-02-10T23:11:53;96489.84;;;-3.66;100.00
9235;BME280;4652;42.716;23.218;2023-02-10T23:18:35;96485.16;;;-3.88;100.00
9235;BME280;4652;42.716;23.218;2023-02-10T23:25:20;96467.28;;;-4.19;100.00
9235;BME280;4652;42.716;23.218;2023-02-10T23:32:03;96484.44;;;-4.06;100.00
9235;BME280;4652;42.716;23.218;2023-02-10T23:38:45;96491.47;;;-3.73;100.00
9235;BME280;4652;42.716;23.218;2023-02-10T23:45:29;96481.00;;;-3.49;100.00
9235;BME280;4652;42.716;23.218;2023-02-10T23:52:12;96480.03;;;-3.40;100.00
9235;BME280;4652;42.716;23.218;2023-02-10T23:58:54;96492.72;;;-3.85;100.00
